sensor_id;sensor_type;location;lat;lon;timestamp;P1;durP1;ratioP1;P2;durP2;ratioP2
76582;SDS011;65462;52.148;7.940;2023-07-24T00:01:51;4.63;;;3.65;;
76582;SDS011;65462;52.148;7.940;2023-07-24T00:04:17;3.95;;;3.40;;
76582;SDS011;65462;52.148;7.940;2023-07-24T00:06:42;4.18;;;3.65;;
76582;SDS011;65462;52.148;7.940;2023-07-24T00:09:07;5.70;;;3.53;;
76582;SDS011;65462;52.148;7.940;2023-07-24T00:11:32;3.60;;;2.97;;
76582;SDS011;65462;52.148;7.940;2023-07-24T00:13:58;5.35;;;3.80;;
76582;SDS011;65462;52.148;7.940;2023-07-24T00:16:23;4.22;;;3.53;;
76582;SDS011;65462;52.148;7.940;2023-07-24T00:18:48;4.45;;;3.63;;
76582;SDS011;65462;52.148;7.940;2023-07-24T00:21:13;4.53;;;3.50;;
76582;SDS011;65462;52.148;7.940;2023-07-24T00:23:39;5.45;;;4.15;;
76582;SDS011;65462;52.148;7.940;2023-07-24T00:26:04;4.90;;;3.63;;
76582;SDS011;65462;52.148;7.940;2023-07-24T00:28:29;5.03;;;3.80;;
76582;SDS011;65462;52.148;7.940;2023-07-24T00:30:54;4.32;;;3.83;;
76582;SDS011;65462;52.148;7.940;2023-07-24T00:33:21;5.05;;;3.58;;
76582;SDS011;65462;52.148;7.940;2023-07-24T00:35:46;4.53;;;3.72;;
76582;SDS011;65462;52.148;7.940;2023-07-24T00:38:12;6.03;;;3.70;;
76582;SDS011;65462;52.148;7.940;2023-07-24T00:40:37;5.95;;;3.92;;
76582;SDS011;65462;52.148;7.940;2023-07-24T00:43:02;7.20;;;3.78;;
76582;SDS011;65462;52.148;7.940;2023-07-24T00:45:28;6.20;;;4.07;;
76582;SDS011;65462;52.148;7.940;2023-07-24T00:47:53;5.72;;;3.85;;
76582;SDS011;65462;52.148;7.940;2023-07-24T00:50:18;5.50;;;4.20;;
76582;SDS011;65462;52.148;7.940;2023-07-24T00:52:44;4.55;;;3.78;;
76582;SDS011;65462;52.148;7.940;2023-07-24T00:55:10;4.18;;;3.55;;
76582;SDS011;65462;52.148;7.940;2023-07-24T00:57:37;6.35;;;4.20;;
76582;SDS011;65462;52.148;7.940;2023-07-24T01:00:03;4.72;;;3.75;;
76582;SDS011;65462;52.148;7.940;2023-07-24T01:02:29;4.30;;;3.42;;
76582;SDS011;65462;52.148;7.940;2023-07-24T01:04:55;5.50;;;3.83;;
76582;SDS011;65462;52.148;7.940;2023-07-24T01:07:20;5.03;;;3.75;;
76582;SDS011;65462;52.148;7.940;2023-07-24T01:09:45;5.32;;;3.95;;
76582;SDS011;65462;52.148;7.940;2023-07-24T01:15:09;6.43;;;4.32;;
76582;SDS011;65462;52.148;7.940;2023-07-24T01:17:42;6.22;;;4.43;;
76582;SDS011;65462;52.148;7.940;2023-07-24T01:20:12;5.07;;;3.92;;
76582;SDS011;65462;52.148;7.940;2023-07-24T01:22:40;6.97;;;4.43;;
76582;SDS011;65462;52.148;7.940;2023-07-24T01:25:32;6.15;;;4.00;;
76582;SDS011;65462;52.148;7.940;2023-07-24T01:28:06;4.55;;;3.90;;
76582;SDS011;65462;52.148;7.940;2023-07-24T01:30:32;5.45;;;3.97;;
76582;SDS011;65462;52.148;7.940;2023-07-24T01:32:57;4.55;;;3.72;;
76582;SDS011;65462;52.148;7.940;2023-07-24T01:35:22;5.43;;;3.88;;
76582;SDS011;65462;52.148;7.940;2023-07-24T01:37:49;6.78;;;3.83;;
76582;SDS011;65462;52.148;7.940;2023-07-24T01:40:14;6.40;;;3.88;;
76582;SDS011;65462;52.148;7.940;2023-07-24T01:42:40;7.63;;;3.80;;
76582;SDS011;65462;52.148;7.940;2023-07-24T01:45:06;5.65;;;3.63;;
76582;SDS011;65462;52.148;7.940;2023-07-24T01:47:32;5.22;;;4.13;;
76582;SDS011;65462;52.148;7.940;2023-07-24T01:49:57;5.32;;;3.88;;
76582;SDS011;65462;52.148;7.940;2023-07-24T01:52:23;5.45;;;3.70;;
76582;SDS011;65462;52.148;7.940;2023-07-24T01:54:48;7.22;;;3.92;;
76582;SDS011;65462;52.148;7.940;2023-07-24T01:57:13;5.82;;;4.00;;
76582;SDS011;65462;52.148;7.940;2023-07-24T01:59:39;5.03;;;4.05;;
76582;SDS011;65462;52.148;7.940;2023-07-24T02:02:04;4.68;;;3.70;;
76582;SDS011;65462;52.148;7.940;2023-07-24T02:04:30;5.60;;;3.53;;
76582;SDS011;65462;52.148;7.940;2023-07-24T02:06:55;4.03;;;3.60;;
76582;SDS011;65462;52.148;7.940;2023-07-24T02:09:20;6.22;;;3.42;;
76582;SDS011;65462;52.148;7.940;2023-07-24T02:11:45;5.45;;;3.30;;
76582;SDS011;65462;52.148;7.940;2023-07-24T02:14:11;5.20;;;4.03;;
76582;SDS011;65462;52.148;7.940;2023-07-24T02:16:38;4.72;;;3.42;;
76582;SDS011;65462;52.148;7.940;2023-07-24T02:19:03;6.20;;;3.13;;
76582;SDS011;65462;52.148;7.940;2023-07-24T02:21:29;3.95;;;3.00;;
76582;SDS011;65462;52.148;7.940;2023-07-24T02:23:54;4.55;;;3.50;;
76582;SDS011;65462;52.148;7.940;2023-07-24T02:26:19;4.93;;;3.10;;
76582;SDS011;65462;52.148;7.940;2023-07-24T02:28:45;4.05;;;2.95;;
76582;SDS011;65462;52.148;7.940;2023-07-24T02:31:10;3.78;;;2.58;;
76582;SDS011;65462;52.148;7.940;2023-07-24T02:33:36;5.25;;;2.90;;
76582;SDS011;65462;52.148;7.940;2023-07-24T02:36:01;4.07;;;2.53;;
76582;SDS011;65462;52.148;7.940;2023-07-24T02:38:26;4.03;;;2.80;;
76582;SDS011;65462;52.148;7.940;2023-07-24T02:40:52;6.38;;;2.88;;
76582;SDS011;65462;52.148;7.940;2023-07-24T02:43:17;5.25;;;2.70;;
76582;SDS011;65462;52.148;7.940;2023-07-24T02:45:42;3.95;;;2.50;;
76582;SDS011;65462;52.148;7.940;2023-07-24T02:48:08;4.15;;;2.47;;
76582;SDS011;65462;52.148;7.940;2023-07-24T02:50:33;4.15;;;2.70;;
76582;SDS011;65462;52.148;7.940;2023-07-24T02:52:59;4.35;;;2.30;;
76582;SDS011;65462;52.148;7.940;2023-07-24T02:55:24;3.42;;;2.40;;
76582;SDS011;65462;52.148;7.940;2023-07-24T02:57:50;5.68;;;2.70;;
76582;SDS011;65462;52.148;7.940;2023-07-24T03:00:15;3.55;;;2.45;;
76582;SDS011;65462;52.148;7.940;2023-07-24T03:02:40;3.40;;;2.35;;
76582;SDS011;65462;52.148;7.940;2023-07-24T03:05:06;3.42;;;2.55;;
76582;SDS011;65462;52.148;7.940;2023-07-24T03:07:32;4.00;;;2.60;;
76582;SDS011;65462;52.148;7.940;2023-07-24T03:09:57;4.57;;;2.40;;
76582;SDS011;65462;52.148;7.940;2023-07-24T03:12:22;4.05;;;2.53;;
76582;SDS011;65462;52.148;7.940;2023-07-24T03:14:48;5.68;;;2.33;;
76582;SDS011;65462;52.148;7.940;2023-07-24T03:17:13;3.88;;;2.30;;
76582;SDS011;65462;52.148;7.940;2023-07-24T03:19:39;4.00;;;2.40;;
76582;SDS011;65462;52.148;7.940;2023-07-24T03:22:05;3.38;;;2.25;;
76582;SDS011;65462;52.148;7.940;2023-07-24T03:24:31;4.25;;;2.13;;
76582;SDS011;65462;52.148;7.940;2023-07-24T03:26:56;4.00;;;2.47;;
76582;SDS011;65462;52.148;7.940;2023-07-24T03:29:21;4.18;;;2.08;;
76582;SDS011;65462;52.148;7.940;2023-07-24T03:31:47;5.50;;;2.30;;
76582;SDS011;65462;52.148;7.940;2023-07-24T03:34:12;3.53;;;2.22;;
76582;SDS011;65462;52.148;7.940;2023-07-24T03:36:37;3.30;;;2.20;;
76582;SDS011;65462;52.148;7.940;2023-07-24T03:39:06;5.18;;;2.45;;
76582;SDS011;65462;52.148;7.940;2023-07-24T03:41:31;4.95;;;2.17;;
76582;SDS011;65462;52.148;7.940;2023-07-24T03:43:57;3.35;;;2.53;;
76582;SDS011;65462;52.148;7.940;2023-07-24T03:46:22;4.00;;;2.30;;
76582;SDS011;65462;52.148;7.940;2023-07-24T03:48:47;3.38;;;2.35;;
76582;SDS011;65462;52.148;7.940;2023-07-24T03:51:14;5.18;;;2.58;;
76582;SDS011;65462;52.148;7.940;2023-07-24T03:53:40;4.15;;;1.92;;
76582;SDS011;65462;52.148;7.940;2023-07-24T03:56:05;3.92;;;2.35;;
76582;SDS011;65462;52.148;7.940;2023-07-24T03:58:30;4.80;;;2.42;;
76582;SDS011;65462;52.148;7.940;2023-07-24T04:00:56;4.28;;;2.50;;
76582;SDS011;65462;52.148;7.940;2023-07-24T04:03:21;5.20;;;2.58;;
76582;SDS011;65462;52.148;7.940;2023-07-24T04:05:46;2.65;;;1.75;;
76582;SDS011;65462;52.148;7.940;2023-07-24T04:08:11;3.72;;;1.95;;
76582;SDS011;65462;52.148;7.940;2023-07-24T04:10:37;8.23;;;2.22;;
76582;SDS011;65462;52.148;7.940;2023-07-24T04:13:02;3.88;;;2.30;;
76582;SDS011;65462;52.148;7.940;2023-07-24T04:15:27;3.10;;;2.13;;
76582;SDS011;65462;52.148;7.940;2023-07-24T04:17:53;3.95;;;2.10;;
76582;SDS011;65462;52.148;7.940;2023-07-24T04:20:18;5.13;;;2.35;;
76582;SDS011;65462;52.148;7.940;2023-07-24T04:22:43;3.28;;;1.90;;
76582;SDS011;65462;52.148;7.940;2023-07-24T04:25:08;4.10;;;2.45;;
76582;SDS011;65462;52.148;7.940;2023-07-24T04:27:34;4.13;;;2.50;;
76582;SDS011;65462;52.148;7.940;2023-07-24T04:29:59;3.83;;;2.50;;
76582;SDS011;65462;52.148;7.940;2023-07-24T04:32:26;3.85;;;2.33;;
76582;SDS011;65462;52.148;7.940;2023-07-24T04:34:52;4.18;;;2.40;;
76582;SDS011;65462;52.148;7.940;2023-07-24T04:37:18;4.40;;;2.45;;
76582;SDS011;65462;52.148;7.940;2023-07-24T04:39:43;4.60;;;2.40;;
76582;SDS011;65462;52.148;7.940;2023-07-24T04:42:08;6.47;;;2.33;;
76582;SDS011;65462;52.148;7.940;2023-07-24T04:44:34;4.30;;;2.40;;
76582;SDS011;65462;52.148;7.940;2023-07-24T04:46:59;4.40;;;2.40;;
76582;SDS011;65462;52.148;7.940;2023-07-24T04:49:24;5.57;;;2.40;;
76582;SDS011;65462;52.148;7.940;2023-07-24T04:51:50;4.25;;;2.22;;
76582;SDS011;65462;52.148;7.940;2023-07-24T04:54:16;5.22;;;2.25;;
76582;SDS011;65462;52.148;7.940;2023-07-24T04:56:42;3.83;;;2.33;;
76582;SDS011;65462;52.148;7.940;2023-07-24T04:59:07;3.65;;;2.47;;
76582;SDS011;65462;52.148;7.940;2023-07-24T05:01:32;4.43;;;2.65;;
76582;SDS011;65462;52.148;7.940;2023-07-24T05:03:57;5.07;;;2.13;;
76582;SDS011;65462;52.148;7.940;2023-07-24T05:06:23;4.55;;;2.47;;
76582;SDS011;65462;52.148;7.940;2023-07-24T05:08:48;4.47;;;2.58;;
76582;SDS011;65462;52.148;7.940;2023-07-24T05:11:13;5.85;;;2.63;;
76582;SDS011;65462;52.148;7.940;2023-07-24T05:13:39;5.05;;;2.10;;
76582;SDS011;65462;52.148;7.940;2023-07-24T05:16:04;3.08;;;1.85;;
76582;SDS011;65462;52.148;7.940;2023-07-24T05:18:29;3.50;;;1.60;;
76582;SDS011;65462;52.148;7.940;2023-07-24T05:20:55;3.25;;;1.17;;
76582;SDS011;65462;52.148;7.940;2023-07-24T05:23:20;3.75;;;1.75;;
76582;SDS011;65462;52.148;7.940;2023-07-24T05:25:46;2.28;;;1.52;;
76582;SDS011;65462;52.148;7.940;2023-07-24T05:28:11;2.40;;;1.48;;
76582;SDS011;65462;52.148;7.940;2023-07-24T05:30:36;2.85;;;2.05;;
76582;SDS011;65462;52.148;7.940;2023-07-24T05:33:02;3.17;;;1.98;;
76582;SDS011;65462;52.148;7.940;2023-07-24T05:35:27;3.63;;;2.35;;
76582;SDS011;65462;52.148;7.940;2023-07-24T05:37:52;2.70;;;1.90;;
76582;SDS011;65462;52.148;7.940;2023-07-24T05:40:18;5.32;;;2.17;;
76582;SDS011;65462;52.148;7.940;2023-07-24T05:42:43;4.25;;;2.08;;
76582;SDS011;65462;52.148;7.940;2023-07-24T05:45:08;5.70;;;2.40;;
76582;SDS011;65462;52.148;7.940;2023-07-24T05:47:35;5.50;;;2.60;;
76582;SDS011;65462;52.148;7.940;2023-07-24T05:50:01;3.83;;;2.30;;
76582;SDS011;65462;52.148;7.940;2023-07-24T05:52:26;5.47;;;2.58;;
76582;SDS011;65462;52.148;7.940;2023-07-24T05:54:51;3.55;;;2.40;;
76582;SDS011;65462;52.148;7.940;2023-07-24T05:57:16;4.25;;;2.33;;
76582;SDS011;65462;52.148;7.940;2023-07-24T05:59:42;3.70;;;2.40;;
76582;SDS011;65462;52.148;7.940;2023-07-24T06:02:07;4.85;;;2.63;;
76582;SDS011;65462;52.148;7.940;2023-07-24T06:04:33;4.40;;;2.10;;
76582;SDS011;65462;52.148;7.940;2023-07-24T06:06:58;4.75;;;2.20;;
76582;SDS011;65462;52.148;7.940;2023-07-24T06:09:23;3.17;;;1.92;;
76582;SDS011;65462;52.148;7.940;2023-07-24T06:11:49;4.20;;;2.25;;
76582;SDS011;65462;52.148;7.940;2023-07-24T06:14:14;3.40;;;2.10;;
76582;SDS011;65462;52.148;7.940;2023-07-24T06:16:39;2.67;;;1.70;;
76582;SDS011;65462;52.148;7.940;2023-07-24T06:19:05;2.92;;;1.77;;
76582;SDS011;65462;52.148;7.940;2023-07-24T06:21:30;3.05;;;1.98;;
76582;SDS011;65462;52.148;7.940;2023-07-24T06:23:56;2.50;;;1.77;;
76582;SDS011;65462;52.148;7.940;2023-07-24T06:26:21;3.58;;;1.80;;
76582;SDS011;65462;52.148;7.940;2023-07-24T06:28:46;2.92;;;2.10;;
76582;SDS011;65462;52.148;7.940;2023-07-24T06:31:12;3.67;;;2.30;;
76582;SDS011;65462;52.148;7.940;2023-07-24T06:33:37;5.28;;;2.70;;
76582;SDS011;65462;52.148;7.940;2023-07-24T06:36:02;4.13;;;2.78;;
76582;SDS011;65462;52.148;7.940;2023-07-24T06:38:27;3.80;;;2.80;;
76582;SDS011;65462;52.148;7.940;2023-07-24T06:40:53;3.17;;;2.78;;
76582;SDS011;65462;52.148;7.940;2023-07-24T06:43:18;5.18;;;3.50;;
76582;SDS011;65462;52.148;7.940;2023-07-24T06:45:43;4.30;;;3.30;;
76582;SDS011;65462;52.148;7.940;2023-07-24T06:48:09;4.97;;;3.47;;
76582;SDS011;65462;52.148;7.940;2023-07-24T06:50:34;5.50;;;3.60;;
76582;SDS011;65462;52.148;7.940;2023-07-24T06:52:59;4.90;;;3.03;;
76582;SDS011;65462;52.148;7.940;2023-07-24T06:55:24;5.00;;;3.50;;
76582;SDS011;65462;52.148;7.940;2023-07-24T06:57:50;4.70;;;3.22;;
76582;SDS011;65462;52.148;7.940;2023-07-24T07:00:15;4.72;;;3.35;;
76582;SDS011;65462;52.148;7.940;2023-07-24T07:02:40;5.18;;;3.35;;
76582;SDS011;65462;52.148;7.940;2023-07-24T07:05:06;5.80;;;3.67;;
76582;SDS011;65462;52.148;7.940;2023-07-24T07:07:31;5.13;;;3.50;;
76582;SDS011;65462;52.148;7.940;2023-07-24T07:09:57;6.97;;;3.40;;
76582;SDS011;65462;52.148;7.940;2023-07-24T07:12:22;5.93;;;3.55;;
76582;SDS011;65462;52.148;7.940;2023-07-24T07:14:47;6.05;;;3.53;;
76582;SDS011;65462;52.148;7.940;2023-07-24T07:17:13;4.50;;;3.72;;
76582;SDS011;65462;52.148;7.940;2023-07-24T07:19:38;5.72;;;3.65;;
76582;SDS011;65462;52.148;7.940;2023-07-24T07:22:03;6.13;;;3.58;;
76582;SDS011;65462;52.148;7.940;2023-07-24T07:24:29;4.82;;;3.28;;
76582;SDS011;65462;52.148;7.940;2023-07-24T07:26:54;4.85;;;3.55;;
76582;SDS011;65462;52.148;7.940;2023-07-24T07:29:19;5.63;;;3.65;;
76582;SDS011;65462;52.148;7.940;2023-07-24T07:31:45;4.95;;;3.83;;
76582;SDS011;65462;52.148;7.940;2023-07-24T07:34:10;3.92;;;3.35;;
76582;SDS011;65462;52.148;7.940;2023-07-24T07:36:35;6.63;;;3.92;;
76582;SDS011;65462;52.148;7.940;2023-07-24T07:39:01;6.63;;;3.90;;
76582;SDS011;65462;52.148;7.940;2023-07-24T07:41:27;5.72;;;3.92;;
76582;SDS011;65462;52.148;7.940;2023-07-24T07:43:53;6.20;;;4.20;;
76582;SDS011;65462;52.148;7.940;2023-07-24T07:46:19;5.97;;;3.88;;
76582;SDS011;65462;52.148;7.940;2023-07-24T07:48:44;5.57;;;4.40;;
76582;SDS011;65462;52.148;7.940;2023-07-24T07:51:11;5.60;;;4.07;;
76582;SDS011;65462;52.148;7.940;2023-07-24T07:53:36;5.60;;;4.20;;
76582;SDS011;65462;52.148;7.940;2023-07-24T07:56:03;4.65;;;3.92;;
76582;SDS011;65462;52.148;7.940;2023-07-24T07:58:29;6.00;;;4.47;;
76582;SDS011;65462;52.148;7.940;2023-07-24T08:00:54;6.43;;;4.22;;
76582;SDS011;65462;52.148;7.940;2023-07-24T08:03:19;5.70;;;4.70;;
76582;SDS011;65462;52.148;7.940;2023-07-24T08:05:45;5.43;;;4.32;;
76582;SDS011;65462;52.148;7.940;2023-07-24T08:08:10;5.68;;;4.32;;
76582;SDS011;65462;52.148;7.940;2023-07-24T08:10:39;4.88;;;4.00;;
76582;SDS011;65462;52.148;7.940;2023-07-24T08:13:04;4.80;;;4.20;;
76582;SDS011;65462;52.148;7.940;2023-07-24T08:15:35;6.38;;;3.97;;
76582;SDS011;65462;52.148;7.940;2023-07-24T08:18:02;4.68;;;3.70;;
76582;SDS011;65462;52.148;7.940;2023-07-24T08:20:28;5.38;;;3.80;;
76582;SDS011;65462;52.148;7.940;2023-07-24T08:22:54;4.95;;;3.60;;
76582;SDS011;65462;52.148;7.940;2023-07-24T08:25:19;3.60;;;3.03;;
76582;SDS011;65462;52.148;7.940;2023-07-24T08:27:44;4.18;;;2.92;;
76582;SDS011;65462;52.148;7.940;2023-07-24T08:30:09;3.67;;;2.85;;
76582;SDS011;65462;52.148;7.940;2023-07-24T08:32:35;4.60;;;2.92;;
76582;SDS011;65462;52.148;7.940;2023-07-24T08:35:01;2.80;;;2.47;;
76582;SDS011;65462;52.148;7.940;2023-07-24T08:37:26;3.50;;;2.60;;
76582;SDS011;65462;52.148;7.940;2023-07-24T08:39:51;3.42;;;2.38;;
76582;SDS011;65462;52.148;7.940;2023-07-24T08:42:16;2.30;;;1.70;;
76582;SDS011;65462;52.148;7.940;2023-07-24T08:44:42;2.15;;;1.48;;
76582;SDS011;65462;52.148;7.940;2023-07-24T08:47:11;1.85;;;1.17;;
76582;SDS011;65462;52.148;7.940;2023-07-24T08:49:39;1.75;;;1.27;;
76582;SDS011;65462;52.148;7.940;2023-07-24T08:52:07;3.00;;;1.50;;
76582;SDS011;65462;52.148;7.940;2023-07-24T08:54:35;1.55;;;1.38;;
76582;SDS011;65462;52.148;7.940;2023-07-24T08:57:05;2.50;;;1.70;;
76582;SDS011;65462;52.148;7.940;2023-07-24T08:59:32;2.78;;;1.80;;
76582;SDS011;65462;52.148;7.940;2023-07-24T09:01:57;3.03;;;2.00;;
76582;SDS011;65462;52.148;7.940;2023-07-24T09:04:23;2.25;;;1.48;;
76582;SDS011;65462;52.148;7.940;2023-07-24T09:06:49;1.92;;;1.60;;
76582;SDS011;65462;52.148;7.940;2023-07-24T09:09:15;2.28;;;1.63;;
76582;SDS011;65462;52.148;7.940;2023-07-24T09:11:51;3.80;;;2.00;;
76582;SDS011;65462;52.148;7.940;2023-07-24T09:16:47;3.30;;;2.35;;
76582;SDS011;65462;52.148;7.940;2023-07-24T09:19:16;3.83;;;2.42;;
76582;SDS011;65462;52.148;7.940;2023-07-24T09:21:43;3.67;;;2.90;;
76582;SDS011;65462;52.148;7.940;2023-07-24T09:24:10;4.57;;;2.55;;
76582;SDS011;65462;52.148;7.940;2023-07-24T09:26:46;4.82;;;2.70;;
76582;SDS011;65462;52.148;7.940;2023-07-24T09:29:12;3.25;;;2.45;;
76582;SDS011;65462;52.148;7.940;2023-07-24T09:31:37;3.45;;;2.72;;
76582;SDS011;65462;52.148;7.940;2023-07-24T09:34:03;3.45;;;2.70;;
76582;SDS011;65462;52.148;7.940;2023-07-24T09:36:36;4.50;;;3.17;;
76582;SDS011;65462;52.148;7.940;2023-07-24T09:39:03;3.33;;;2.60;;
76582;SDS011;65462;52.148;7.940;2023-07-24T09:41:31;3.10;;;2.33;;
76582;SDS011;65462;52.148;7.940;2023-07-24T09:43:59;4.40;;;2.85;;
76582;SDS011;65462;52.148;7.940;2023-07-24T09:46:24;4.35;;;2.67;;
76582;SDS011;65462;52.148;7.940;2023-07-24T09:48:49;3.58;;;2.67;;
76582;SDS011;65462;52.148;7.940;2023-07-24T09:51:15;2.90;;;2.47;;
76582;SDS011;65462;52.148;7.940;2023-07-24T09:56:51;3.40;;;1.98;;
76582;SDS011;65462;52.148;7.940;2023-07-24T09:59:17;3.13;;;2.40;;
76582;SDS011;65462;52.148;7.940;2023-07-24T10:01:44;3.08;;;2.30;;
76582;SDS011;65462;52.148;7.940;2023-07-24T10:04:10;4.60;;;2.65;;
76582;SDS011;65462;52.148;7.940;2023-07-24T10:06:36;4.25;;;2.83;;
76582;SDS011;65462;52.148;7.940;2023-07-24T10:09:01;3.95;;;2.72;;
76582;SDS011;65462;52.148;7.940;2023-07-24T10:11:27;3.38;;;2.47;;
76582;SDS011;65462;52.148;7.940;2023-07-24T10:13:52;3.55;;;2.10;;
76582;SDS011;65462;52.148;7.940;2023-07-24T10:16:19;4.65;;;2.17;;
76582;SDS011;65462;52.148;7.940;2023-07-24T10:18:45;3.20;;;2.25;;
76582;SDS011;65462;52.148;7.940;2023-07-24T10:21:11;2.78;;;2.03;;
76582;SDS011;65462;52.148;7.940;2023-07-24T10:23:44;3.08;;;2.28;;
76582;SDS011;65462;52.148;7.940;2023-07-24T10:26:13;2.92;;;2.15;;
76582;SDS011;65462;52.148;7.940;2023-07-24T10:28:40;3.10;;;2.45;;
76582;SDS011;65462;52.148;7.940;2023-07-24T10:31:18;3.03;;;2.13;;
76582;SDS011;65462;52.148;7.940;2023-07-24T10:33:47;3.50;;;2.30;;
76582;SDS011;65462;52.148;7.940;2023-07-24T10:36:16;4.22;;;2.30;;
76582;SDS011;65462;52.148;7.940;2023-07-24T10:38:44;4.40;;;2.83;;
76582;SDS011;65462;52.148;7.940;2023-07-24T10:41:10;5.20;;;2.28;;
76582;SDS011;65462;52.148;7.940;2023-07-24T10:43:58;2.88;;;2.13;;
76582;SDS011;65462;52.148;7.940;2023-07-24T10:46:34;3.03;;;1.90;;
76582;SDS011;65462;52.148;7.940;2023-07-24T10:49:03;3.35;;;2.55;;
76582;SDS011;65462;52.148;7.940;2023-07-24T10:51:29;3.80;;;2.50;;
76582;SDS011;65462;52.148;7.940;2023-07-24T10:53:57;3.10;;;2.33;;
76582;SDS011;65462;52.148;7.940;2023-07-24T10:56:22;3.60;;;2.47;;
76582;SDS011;65462;52.148;7.940;2023-07-24T10:58:48;3.28;;;2.20;;
76582;SDS011;65462;52.148;7.940;2023-07-24T11:01:13;4.03;;;2.50;;
76582;SDS011;65462;52.148;7.940;2023-07-24T11:03:40;4.90;;;2.47;;
76582;SDS011;65462;52.148;7.940;2023-07-24T11:06:19;3.50;;;2.50;;
76582;SDS011;65462;52.148;7.940;2023-07-24T11:08:52;3.92;;;2.72;;
76582;SDS011;65462;52.148;7.940;2023-07-24T11:11:29;3.30;;;2.30;;
76582;SDS011;65462;52.148;7.940;2023-07-24T11:13:58;4.50;;;2.30;;
76582;SDS011;65462;52.148;7.940;2023-07-24T11:16:25;2.60;;;1.90;;
76582;SDS011;65462;52.148;7.940;2023-07-24T11:18:50;3.55;;;2.30;;
76582;SDS011;65462;52.148;7.940;2023-07-24T11:21:20;3.70;;;2.33;;
76582;SDS011;65462;52.148;7.940;2023-07-24T11:23:48;5.75;;;2.90;;
76582;SDS011;65462;52.148;7.940;2023-07-24T11:26:19;4.57;;;2.60;;
76582;SDS011;65462;52.148;7.940;2023-07-24T11:28:48;3.75;;;2.45;;
76582;SDS011;65462;52.148;7.940;2023-07-24T11:31:15;3.55;;;2.40;;
76582;SDS011;65462;52.148;7.940;2023-07-24T11:33:44;3.08;;;2.50;;
76582;SDS011;65462;52.148;7.940;2023-07-24T11:36:09;4.32;;;2.85;;
76582;SDS011;65462;52.148;7.940;2023-07-24T11:38:35;3.50;;;2.78;;
76582;SDS011;65462;52.148;7.940;2023-07-24T11:41:02;3.63;;;2.53;;
76582;SDS011;65462;52.148;7.940;2023-07-24T11:43:28;3.45;;;2.67;;
76582;SDS011;65462;52.148;7.940;2023-07-24T11:45:54;3.88;;;2.70;;
76582;SDS011;65462;52.148;7.940;2023-07-24T11:48:21;4.70;;;3.03;;
76582;SDS011;65462;52.148;7.940;2023-07-24T11:50:48;3.67;;;2.55;;
76582;SDS011;65462;52.148;7.940;2023-07-24T11:55:58;3.50;;;2.55;;
76582;SDS011;65462;52.148;7.940;2023-07-24T11:58:28;3.95;;;2.70;;
76582;SDS011;65462;52.148;7.940;2023-07-24T12:00:54;4.40;;;2.38;;
76582;SDS011;65462;52.148;7.940;2023-07-24T12:03:21;3.10;;;2.17;;
76582;SDS011;65462;52.148;7.940;2023-07-24T12:05:50;4.22;;;2.60;;
76582;SDS011;65462;52.148;7.940;2023-07-24T12:08:16;3.60;;;2.35;;
76582;SDS011;65462;52.148;7.940;2023-07-24T12:10:42;3.63;;;2.45;;
76582;SDS011;65462;52.148;7.940;2023-07-24T12:13:08;3.67;;;2.60;;
76582;SDS011;65462;52.148;7.940;2023-07-24T12:15:34;3.60;;;2.38;;
76582;SDS011;65462;52.148;7.940;2023-07-24T12:18:00;2.35;;;1.85;;
76582;SDS011;65462;52.148;7.940;2023-07-24T12:20:26;3.20;;;2.25;;
76582;SDS011;65462;52.148;7.940;2023-07-24T12:22:52;2.95;;;2.28;;
76582;SDS011;65462;52.148;7.940;2023-07-24T12:25:17;2.97;;;1.92;;
76582;SDS011;65462;52.148;7.940;2023-07-24T12:27:43;2.33;;;1.95;;
76582;SDS011;65462;52.148;7.940;2023-07-24T12:30:08;2.72;;;2.15;;
76582;SDS011;65462;52.148;7.940;2023-07-24T12:32:34;3.10;;;1.77;;
76582;SDS011;65462;52.148;7.940;2023-07-24T12:34:59;2.65;;;1.77;;
76582;SDS011;65462;52.148;7.940;2023-07-24T12:37:24;3.53;;;2.13;;
76582;SDS011;65462;52.148;7.940;2023-07-24T12:39:50;2.95;;;1.90;;
76582;SDS011;65462;52.148;7.940;2023-07-24T12:42:15;3.45;;;1.88;;
76582;SDS011;65462;52.148;7.940;2023-07-24T12:44:41;2.20;;;1.90;;
76582;SDS011;65462;52.148;7.940;2023-07-24T12:47:07;2.20;;;1.80;;
76582;SDS011;65462;52.148;7.940;2023-07-24T12:49:32;2.83;;;2.00;;
76582;SDS011;65462;52.148;7.940;2023-07-24T12:51:58;2.13;;;1.65;;
76582;SDS011;65462;52.148;7.940;2023-07-24T12:54:23;2.30;;;1.88;;
76582;SDS011;65462;52.148;7.940;2023-07-24T12:56:49;2.40;;;1.98;;
76582;SDS011;65462;52.148;7.940;2023-07-24T12:59:15;3.30;;;2.05;;
76582;SDS011;65462;52.148;7.940;2023-07-24T13:01:41;2.85;;;2.28;;
76582;SDS011;65462;52.148;7.940;2023-07-24T13:04:07;4.07;;;2.83;;
76582;SDS011;65462;52.148;7.940;2023-07-24T13:06:33;3.70;;;2.40;;
76582;SDS011;65462;52.148;7.940;2023-07-24T13:08:58;3.63;;;2.47;;
76582;SDS011;65462;52.148;7.940;2023-07-24T13:11:23;3.80;;;2.70;;
76582;SDS011;65462;52.148;7.940;2023-07-24T13:13:49;5.22;;;2.78;;
76582;SDS011;65462;52.148;7.940;2023-07-24T13:16:15;3.00;;;2.22;;
76582;SDS011;65462;52.148;7.940;2023-07-24T13:18:40;3.08;;;2.20;;
76582;SDS011;65462;52.148;7.940;2023-07-24T13:21:06;2.67;;;2.10;;
76582;SDS011;65462;52.148;7.940;2023-07-24T13:23:32;2.88;;;2.17;;
76582;SDS011;65462;52.148;7.940;2023-07-24T13:25:58;2.90;;;2.15;;
76582;SDS011;65462;52.148;7.940;2023-07-24T13:28:23;2.67;;;2.40;;
76582;SDS011;65462;52.148;7.940;2023-07-24T13:30:48;4.00;;;2.55;;
76582;SDS011;65462;52.148;7.940;2023-07-24T13:33:13;2.83;;;2.25;;
76582;SDS011;65462;52.148;7.940;2023-07-24T13:35:39;3.25;;;2.45;;
76582;SDS011;65462;52.148;7.940;2023-07-24T13:38:04;2.78;;;2.10;;
76582;SDS011;65462;52.148;7.940;2023-07-24T13:40:29;2.88;;;2.30;;
76582;SDS011;65462;52.148;7.940;2023-07-24T13:42:55;5.47;;;2.38;;
76582;SDS011;65462;52.148;7.940;2023-07-24T13:45:20;3.67;;;2.40;;
76582;SDS011;65462;52.148;7.940;2023-07-24T13:47:46;3.42;;;2.47;;
76582;SDS011;65462;52.148;7.940;2023-07-24T13:50:12;3.17;;;2.60;;
76582;SDS011;65462;52.148;7.940;2023-07-24T13:52:37;4.60;;;2.80;;
76582;SDS011;65462;52.148;7.940;2023-07-24T13:55:03;3.28;;;2.75;;
76582;SDS011;65462;52.148;7.940;2023-07-24T13:57:29;3.05;;;2.75;;
76582;SDS011;65462;52.148;7.940;2023-07-24T13:59:54;3.08;;;2.78;;
76582;SDS011;65462;52.148;7.940;2023-07-24T14:02:19;3.00;;;2.47;;
76582;SDS011;65462;52.148;7.940;2023-07-24T14:04:44;4.03;;;2.88;;
76582;SDS011;65462;52.148;7.940;2023-07-24T14:07:10;4.55;;;3.10;;
76582;SDS011;65462;52.148;7.940;2023-07-24T14:09:38;3.47;;;2.92;;
76582;SDS011;65462;52.148;7.940;2023-07-24T14:12:03;3.55;;;2.63;;
76582;SDS011;65462;52.148;7.940;2023-07-24T14:14:28;2.60;;;2.30;;
76582;SDS011;65462;52.148;7.940;2023-07-24T14:16:54;2.55;;;2.20;;
76582;SDS011;65462;52.148;7.940;2023-07-24T14:19:19;3.25;;;2.30;;
76582;SDS011;65462;52.148;7.940;2023-07-24T14:21:44;3.08;;;2.58;;
76582;SDS011;65462;52.148;7.940;2023-07-24T14:24:10;2.63;;;2.22;;
76582;SDS011;65462;52.148;7.940;2023-07-24T14:26:35;4.05;;;2.33;;
76582;SDS011;65462;52.148;7.940;2023-07-24T14:29:02;3.60;;;2.20;;
76582;SDS011;65462;52.148;7.940;2023-07-24T14:31:27;2.60;;;2.20;;
76582;SDS011;65462;52.148;7.940;2023-07-24T14:33:54;3.13;;;2.13;;
76582;SDS011;65462;52.148;7.940;2023-07-24T14:36:19;2.58;;;2.10;;
76582;SDS011;65462;52.148;7.940;2023-07-24T14:38:44;2.80;;;2.15;;
76582;SDS011;65462;52.148;7.940;2023-07-24T14:41:09;3.67;;;2.70;;
76582;SDS011;65462;52.148;7.940;2023-07-24T14:43:37;4.72;;;2.47;;
76582;SDS011;65462;52.148;7.940;2023-07-24T14:46:03;3.45;;;2.67;;
76582;SDS011;65462;52.148;7.940;2023-07-24T14:48:28;4.38;;;3.20;;
76582;SDS011;65462;52.148;7.940;2023-07-24T14:50:53;3.83;;;3.13;;
76582;SDS011;65462;52.148;7.940;2023-07-24T14:53:18;3.70;;;3.03;;